AirNav   Pilot Hours Calculator
 
 1257 users online  

42PA Ransome Heliport
Exton, Pennsylvania, USA

GOING TO EXTON?


FAA INFORMATION EFFECTIVE 22 APRIL 2021

Location

FAA Identifier: 42PA
Lat/Long: 40-01-21.3850N 075-35-09.7470W
40-01.356417N 075-35.162450W
40.0226069,-75.5860408
(estimated)
Elevation: 575 ft. / 175 m (estimated)
Variation: 11W (1985)
From city: 1 mile NE of EXTON, PA
Time zone: UTC -4 (UTC -5 during Standard Time)
Zip code: 19355

Heliport Operations

Heliport use: Private use. Permission required prior to landing
Activation date: 06/1980
Control tower: no
ARTCC: NEW YORK CENTER
FSS: WILLIAMSPORT FLIGHT SERVICE STATION
Attendance: MON-FRI 0700-2330
Wind indicator: lighted
Segmented circle: no
Lights: SS-SR

Heliport Communications

UNICOM: 123.05
WX AWOS-3T at OQN (2.0 nm S): 121.4 ((610) 692-6190)
WX ASOS at PTW (13 nm N): 119.425 (610-495-0823)
WX AWOS-3 at MQS (13 nm W): 126.25 (610-384-6132)
WX AWOS-3 at LOM (16 nm NE): 118.925 (215-646-1068)
WX ASOS at PHL (18 nm SE): PHONE 215-492-9617
  • CLEARANCE DELIVERY PHILADELPHIA APCH TF 800-354-9884.

Nearby radio navigation aids

VOR radial/distance  VOR name  Freq  Var
MXEr041/7.4MODENA VORTAC113.2009W
PTWr195/12.0POTTSTOWN VORTAC116.5009W
DQOr013/20.7DUPONT VORTAC114.0010W
OODr341/26.6WOODSTOWN VORTAC112.8010W
LRPr109/32.9LANCASTER VOR/DME117.3009W
ETXr181/33.8EAST TEXAS VOR/DME110.2009W
ARDr256/34.1YARDLEY VOR/DME108.2010W

 
NDB name  Hdg/Dist  Freq  Var  ID
AMBLER258/15.127512WING .. -. --.

Heliport Services

Fuel available: A
Parking: hangars and tiedowns
Airframe service: MAJOR
Powerplant service: MAJOR

Runway Information

Helipad H1

Dimensions: 65 x 65 ft. / 20 x 20 m
Surface: asphalt, in good condition
Runway edge lights: PERI
Latitude: 40-01.356417N
Longitude: 075-35.162450W
Elevation: 575.0 ft.
Traffic pattern: leftleft

Heliport Ownership and Management from official FAA records

Ownership: Privately-owned
Owner: WLB PARTNERS
2975 GALLOWAY ROAD
BENSALEM, PA 19020
Phone 215-639-4300
Manager: CLAY C. BROMLEY
1420 PHOENIXVILLE PIKE
WEST CHESTER, PA 19380
Phone 215-245-3756

Heliport Operational Statistics

Aircraft operations: avg 34/week *
49% transient general aviation
49% local general aviation
1% military
* for 12-month period ending 30 May 2007

Additional Remarks

A52-H1 24 FT TREES 372 FT NW OF HELIPAD; +74 FT TREES 725 FT SOUTH OF HELIPAD.
INGRESS 120/315 DEG, EGRESS 300/135 DEG.
FREQ 128.95 AVBL FOR USE AT HELI.
FOR CD CTC PHILADELPHIA APCH AT 800-354-9884.

Instrument Procedures

There are no published instrument procedures at 42PA.

Some nearby airports with instrument procedures:

KOQN - Brandywine Regional Airport (2 nm S)
N10 - Perkiomen Valley Airport (13 nm NE)
KPTW - Heritage Field Airport (13 nm N)
KMQS - Chester County G O Carlson Airport (13 nm W)
N57 - New Garden Airport (14 nm SW)
N47 - Pottstown Municipal Airport (15 nm N)
KLOM - Wings Field Airport (16 nm NE)
KPHL - Philadelphia International Airport (18 nm SE)
7N7 - Spitfire Aerodrome (19 nm SE)
 
Loc | Ops | Rwys | IFR | FBO | Links
Com | Nav | Svcs | Stats | Notes
Aerial photo
No photo
 
Sectional chart

 
Airport distance calculator
Flying to Ransome Heliport? Find the distance to fly.

From to 42PA

Sunrise and sunset
Times for 05-May-2021
 Local
(UTC-4)
 Zulu
(UTC)
Morning civil twilight05:2909:29
Sunrise05:5809:58
Sunset20:0024:00
Evening civil twilight20:2900:29

Current date and time
Zulu (UTC)  05-May-2021 23:01:48
Local (UTC-4)  05-May-2021 19:01:48
 
METAR
KOQN 
2nm S 
052255Z AUTO 30010G25KT 10SM SCT026 OVC035 16/10 A2979 RMK AO2
KPTW 
13nm N 
052230Z AUTO 30009KT 10SM SCT026 BKN032 OVC039 14/13 A2979 RMK AO2 RAE20 P0001 T01440128
KMQS 
13nm W 
052255Z AUTO 32010KT 10SM FEW015 BKN037 OVC049 15/12 A2981 RMK AO2
KLOM 
16nm NE 
052255Z AUTO 30008G17KT 7SM SCT019 BKN031 OVC041 15/14 A2978 RMK AO2 P0001 T01510136
KPHL 
19nm SE 
052254Z 34017G27KT 10SM FEW028 BKN046 BKN055 18/13 A2976 RMK AO2 PK WND 35027/2249 PRESRR SLP076 T01830133
TAF
KPHL 
19nm SE 
052034Z 0521/0624 32011G19KT P6SM BKN050 FM060800 32011KT P6SM SCT250 FM061400 32010G18KT P6SM SCT250
KILG 
21nm S 
051738Z 0518/0618 33008KT P6SM VCSH BKN030 FM052100 32011G19KT P6SM BKN045 FM060800 32011KT P6SM SCT250 FM061400 32010G18KT P6SM SCT250
NOTAMs
Click for the latest NOTAMs
NOTAMs are issued by the DoD/FAA and will open in a separate window not controlled by AirNav.

 

 
 

Would you like to see your business listed on this page?

 If your business provides an interesting product or service to pilots, flight crews, aircraft, or users of the Ransome Heliport, you should consider listing it here.  To start the listing process, click on the button below
 
Add a business
 

Other Pages about Ransome Heliport

Update a link
 
Copyright © AirNav, LLC. All rights reserved. Privacy Policy  Contact